createdAt,value
2023-03-16T00:00:43.670Z,98969.44
2023-03-16T00:03:12.176Z,98969.17
2023-03-16T00:05:40.488Z,98966.66
2023-03-16T00:08:09.388Z,98965.30
2023-03-16T00:10:37.453Z,98968.34
2023-03-16T00:13:25.368Z,98960.00
2023-03-16T00:15:55.322Z,98964.23
2023-03-16T00:18:27.313Z,98961.61
2023-03-16T00:21:02.499Z,98962.08
2023-03-16T00:23:35.931Z,98961.89
2023-03-16T00:26:06.197Z,98966.26
2023-03-16T00:28:37.780Z,98961.77
2023-03-16T00:31:12.214Z,98960.84
2023-03-16T00:33:43.036Z,98959.20
2023-03-16T00:36:11.826Z,98958.08
2023-03-16T00:38:49.303Z,98957.92
2023-03-16T00:41:17.407Z,98954.80
2023-03-16T00:43:49.113Z,98957.36
2023-03-16T00:46:17.660Z,98956.83
2023-03-16T00:48:51.514Z,98954.80
2023-03-16T00:51:19.757Z,98958.30
2023-03-16T00:53:48.232Z,98965.45
2023-03-16T00:56:20.395Z,98964.06
2023-03-16T00:58:49.616Z,98964.01
2023-03-16T01:01:19.851Z,98966.89
2023-03-16T01:03:49.980Z,98973.05
2023-03-16T01:06:20.791Z,98972.77
2023-03-16T01:08:49.452Z,98973.39
2023-03-16T01:11:19.074Z,98973.77
2023-03-16T01:13:49.237Z,98976.45
2023-03-16T01:16:19.195Z,98980.16
2023-03-16T01:18:52.524Z,98976.26
2023-03-16T01:21:21.905Z,98975.41
2023-03-16T01:23:54.060Z,98980.52
2023-03-16T01:26:23.343Z,98979.36
2023-03-16T01:28:51.751Z,98986.80
2023-03-16T01:31:19.890Z,98994.25
2023-03-16T01:33:48.612Z,98997.23
2023-03-16T01:36:22.169Z,98995.90
2023-03-16T01:38:57.141Z,98998.53
2023-03-16T01:41:28.022Z,99000.13
2023-03-16T01:43:58.807Z,99012.14
2023-03-16T01:46:29.726Z,99005.30
2023-03-16T01:49:06.649Z,99006.34
2023-03-16T01:51:45.408Z,99006.77
2023-03-16T01:54:19.244Z,99004.09
2023-03-16T01:57:08.105Z,99005.85
2023-03-16T01:59:59.766Z,99008.95
2023-03-16T02:02:30.153Z,99009.86
2023-03-16T02:05:00.242Z,99011.41
2023-03-16T02:07:30.597Z,99016.13
2023-03-16T02:10:02.670Z,99020.84
2023-03-16T02:12:34.955Z,99021.25
2023-03-16T02:15:04.969Z,99017.11
2023-03-16T02:17:34.383Z,99019.73
2023-03-16T02:20:11.851Z,99025.12
2023-03-16T02:22:44.524Z,99031.46
2023-03-16T02:25:14.130Z,99026.05
2023-03-16T02:28:01.060Z,99033.91
2023-03-16T02:30:30.064Z,99039.64
2023-03-16T02:33:06.200Z,99034.08
2023-03-16T02:35:34.467Z,99040.06
2023-03-16T02:38:04.120Z,99049.02
2023-03-16T02:40:36.157Z,99049.48
2023-03-16T02:43:11.335Z,99044.81
2023-03-16T02:45:45.033Z,99044.48
2023-03-16T02:48:17.488Z,99044.13
2023-03-16T02:50:52.025Z,99039.55
2023-03-16T02:53:20.814Z,99029.41
2023-03-16T02:55:52.135Z,99019.45
2023-03-16T02:58:21.283Z,99019.83
2023-03-16T03:00:49.625Z,99019.06
2023-03-16T03:03:18.942Z,99026.16
2023-03-16T03:05:46.981Z,99025.95
2023-03-16T03:08:20.581Z,99030.84
2023-03-16T03:10:49.860Z,99039.20
2023-03-16T03:13:17.934Z,99035.35
2023-03-16T03:15:47.229Z,99029.30
2023-03-16T03:18:15.363Z,99026.35
2023-03-16T03:20:43.617Z,99039.89
2023-03-16T03:23:11.770Z,99046.45
2023-03-16T03:25:43.426Z,99046.20
2023-03-16T03:28:11.950Z,99040.18
2023-03-16T03:30:40.500Z,99045.83
2023-03-16T03:33:08.795Z,99049.70
2023-03-16T03:35:39.001Z,99042.36
2023-03-16T03:38:08.576Z,99046.06
2023-03-16T03:40:44.033Z,99048.14
2023-03-16T03:43:13.755Z,99042.92
2023-03-16T03:45:44.600Z,99041.92
2023-03-16T03:48:15.975Z,99039.10
2023-03-16T03:50:43.973Z,99038.33
2023-03-16T03:53:23.225Z,99046.53
2023-03-16T03:56:09.270Z,99046.73
2023-03-16T03:58:39.270Z,99044.44
2023-03-16T04:01:07.378Z,99043.05
2023-03-16T04:03:36.790Z,99051.45
2023-03-16T04:06:08.166Z,99054.91
2023-03-16T04:08:37.211Z,99054.95
2023-03-16T04:11:13.776Z,99054.30
2023-03-16T04:13:47.270Z,99056.42
2023-03-16T04:16:17.244Z,99061.64
2023-03-16T04:18:48.439Z,99060.42
2023-03-16T04:21:17.424Z,99058.67
2023-03-16T04:23:47.846Z,99062.08
2023-03-16T04:26:16.187Z,99067.09
2023-03-16T04:28:47.606Z,99064.27
2023-03-16T04:31:19.838Z,99064.25
2023-03-16T04:33:50.787Z,99065.74
2023-03-16T04:36:19.240Z,99067.45
2023-03-16T04:38:47.380Z,99072.25
2023-03-16T04:41:16.456Z,99073.20
2023-03-16T04:43:55.554Z,99084.27
2023-03-16T04:46:27.307Z,99092.27
2023-03-16T04:48:58.444Z,99097.27
2023-03-16T04:51:27.005Z,99096.68
2023-03-16T04:54:04.726Z,99096.61
2023-03-16T04:56:37.338Z,99099.14
2023-03-16T04:59:09.852Z,99101.79
2023-03-16T05:01:48.617Z,99104.39
2023-03-16T05:04:19.567Z,99106.82
2023-03-16T05:06:48.443Z,99108.20
2023-03-16T05:09:20.775Z,99108.40
2023-03-16T05:11:48.880Z,99110.44
2023-03-16T05:14:17.838Z,99113.96
2023-03-16T05:17:15.296Z,99117.06
2023-03-16T05:19:44.074Z,99120.09
2023-03-16T05:22:15.979Z,99125.96
2023-03-16T05:25:03.535Z,99130.39
2023-03-16T05:27:34.452Z,99140.25
2023-03-16T05:30:04.223Z,99143.29
2023-03-16T05:32:33.193Z,99150.44
2023-03-16T05:35:23.067Z,99155.27
2023-03-16T05:37:53.459Z,99161.93
2023-03-16T05:40:23.275Z,99167.98
2023-03-16T05:43:05.958Z,99173.95
2023-03-16T05:45:35.918Z,99176.30
2023-03-16T05:48:10.732Z,99176.72
2023-03-16T05:50:44.961Z,99179.55
2023-03-16T05:53:15.520Z,99179.16
2023-03-16T05:55:43.778Z,99180.05
2023-03-16T05:58:13.685Z,99184.61
2023-03-16T06:00:42.543Z,99184.14
2023-03-16T06:03:18.523Z,99183.23
2023-03-16T06:05:47.400Z,99181.89
2023-03-16T06:08:16.541Z,99178.91
2023-03-16T06:10:52.708Z,99178.70
2023-03-16T06:13:23.517Z,99187.01
2023-03-16T06:15:51.756Z,99188.86
2023-03-16T06:18:21.614Z,99191.39
2023-03-16T06:20:50.257Z,99193.80
2023-03-16T06:23:20.449Z,99192.87
2023-03-16T06:25:49.153Z,99196.19
2023-03-16T06:28:17.597Z,99198.98
2023-03-16T06:30:46.943Z,99201.17
2023-03-16T06:33:15.371Z,99198.46
2023-03-16T06:35:43.382Z,99205.45
2023-03-16T06:38:20.347Z,99208.60
2023-03-16T06:40:55.343Z,99207.90
2023-03-16T06:43:24.503Z,99209.73
2023-03-16T06:45:53.453Z,99215.85
2023-03-16T06:48:21.822Z,99216.46
2023-03-16T06:50:49.859Z,99217.38
2023-03-16T06:53:22.257Z,99220.90
2023-03-16T06:55:52.718Z,99222.25
2023-03-16T06:58:22.387Z,99227.40
2023-03-16T07:00:56.048Z,99223.86
2023-03-16T07:03:25.102Z,99229.27
2023-03-16T07:05:57.641Z,99230.27
2023-03-16T07:08:30.628Z,99236.39
2023-03-16T07:10:59.680Z,99238.02
2023-03-16T07:13:27.780Z,99238.70
2023-03-16T07:15:56.158Z,99243.08
2023-03-16T07:19:24.085Z,99241.27
2023-03-16T07:21:54.018Z,99244.67
2023-03-16T07:24:22.890Z,99247.93
2023-03-16T07:26:51.148Z,99247.80
2023-03-16T07:29:26.281Z,99248.60
2023-03-16T07:31:55.047Z,99253.20
2023-03-16T07:34:33.934Z,99258.09
2023-03-16T07:37:02.227Z,99261.19
2023-03-16T07:39:33.094Z,99267.58
2023-03-16T07:42:11.022Z,99262.48
2023-03-16T07:45:01.872Z,99261.64
2023-03-16T07:47:34.087Z,99265.55
2023-03-16T07:50:09.091Z,99269.55
2023-03-16T07:52:44.132Z,99274.01
2023-03-16T07:55:13.535Z,99271.34
2023-03-16T07:57:42.687Z,99271.67
2023-03-16T08:00:14.348Z,99276.86
2023-03-16T08:02:43.633Z,99282.02
2023-03-16T08:05:20.831Z,99284.91
2023-03-16T08:08:05.109Z,99286.35
2023-03-16T08:10:34.509Z,99285.88
2023-03-16T08:13:11.692Z,99285.02
2023-03-16T08:15:49.545Z,99287.67
2023-03-16T08:18:26.790Z,99286.36
2023-03-16T08:20:57.741Z,99287.11
2023-03-16T08:23:29.440Z,99285.81
2023-03-16T08:25:57.985Z,99286.93
2023-03-16T08:28:26.836Z,99287.15
2023-03-16T08:30:56.135Z,99286.29
2023-03-16T08:33:47.544Z,99288.48
2023-03-16T08:36:17.118Z,99287.21
2023-03-16T08:39:06.215Z,99285.55
2023-03-16T08:41:47.201Z,99283.73
2023-03-16T08:44:30.379Z,99288.13
2023-03-16T08:47:00.170Z,99291.38
2023-03-16T08:49:30.189Z,99297.94
2023-03-16T08:52:06.159Z,99307.22
2023-03-16T08:54:35.702Z,99309.60
2023-03-16T08:57:06.189Z,99311.71
2023-03-16T08:59:37.170Z,99308.94
2023-03-16T09:02:05.309Z,99316.02
2023-03-16T09:04:35.356Z,99319.70
2023-03-16T09:07:08.919Z,99324.01
2023-03-16T09:09:40.317Z,99329.44
2023-03-16T09:12:09.247Z,99333.36
2023-03-16T09:14:40.036Z,99334.88
2023-03-16T09:17:11.834Z,99332.37
2023-03-16T09:19:51.674Z,99329.26
2023-03-16T09:22:21.704Z,99332.91
2023-03-16T09:24:51.293Z,99336.60
2023-03-16T09:27:23.007Z,99339.44
2023-03-16T09:29:59.556Z,99341.42
2023-03-16T09:32:28.514Z,99335.66
2023-03-16T09:34:56.995Z,99332.74
2023-03-16T09:37:35.348Z,99334.19
2023-03-16T09:40:34.063Z,99335.28
2023-03-16T09:43:28.150Z,99335.63
2023-03-16T09:46:02.352Z,99336.94
2023-03-16T09:48:35.702Z,99336.23
2023-03-16T09:51:07.852Z,99337.86
2023-03-16T09:53:39.762Z,99337.86
2023-03-16T09:56:29.271Z,99341.55
2023-03-16T09:58:59.151Z,99342.21
2023-03-16T10:01:51.350Z,99340.71
2023-03-16T10:04:37.842Z,99344.72
2023-03-16T10:07:24.798Z,99341.15
2023-03-16T10:09:57.171Z,99341.56
2023-03-16T10:12:32.477Z,99341.23
2023-03-16T10:15:27.532Z,99343.33
2023-03-16T10:18:18.082Z,99345.02
2023-03-16T10:20:49.291Z,99342.84
2023-03-16T10:23:20.879Z,99346.13
2023-03-16T10:25:54.222Z,99344.33
2023-03-16T10:28:23.918Z,99352.60
2023-03-16T10:30:54.984Z,99354.02
2023-03-16T10:33:31.825Z,99354.92
2023-03-16T10:36:03.433Z,99355.73
2023-03-16T10:38:48.250Z,99359.45
2023-03-16T10:41:23.101Z,99361.47
2023-03-16T10:44:08.402Z,99359.30
2023-03-16T10:46:51.369Z,99359.27
2023-03-16T10:49:44.515Z,99364.69
2023-03-16T10:52:34.642Z,99370.11
2023-03-16T10:55:30.999Z,99373.91
2023-03-16T10:58:00.049Z,99369.75
2023-03-16T11:00:46.770Z,99371.14
2023-03-16T11:03:32.706Z,99368.83
2023-03-16T11:06:20.934Z,99366.48
2023-03-16T11:08:49.635Z,99368.08
2023-03-16T11:11:28.111Z,99368.42
2023-03-16T11:13:59.940Z,99368.54
2023-03-16T11:16:37.284Z,99369.08
2023-03-16T11:19:21.873Z,99365.46
2023-03-16T11:21:57.185Z,99363.96
2023-03-16T11:25:09.613Z,99365.02
2023-03-16T11:28:13.552Z,99365.38
2023-03-16T11:30:47.626Z,99364.22
2023-03-16T11:33:17.214Z,99369.58
2023-03-16T11:36:01.365Z,99369.67
2023-03-16T11:39:00.547Z,99374.55
2023-03-16T11:41:38.138Z,99386.34
2023-03-16T11:44:30.766Z,99388.71
2023-03-16T11:47:26.136Z,99388.62
2023-03-16T11:50:27.509Z,99390.19
2023-03-16T11:53:20.535Z,99395.74
2023-03-16T11:56:02.245Z,99402.48
2023-03-16T11:58:50.104Z,99402.87
2023-03-16T12:01:54.375Z,99406.23
2023-03-16T12:04:48.581Z,99409.00
2023-03-16T12:08:00.576Z,99412.74
2023-03-16T12:11:06.109Z,99420.58
2023-03-16T12:13:57.001Z,99426.00
2023-03-16T12:16:33.124Z,99426.59
2023-03-16T12:19:06.787Z,99431.21
2023-03-16T12:21:39.516Z,99435.76
2023-03-16T12:24:28.725Z,99439.94
2023-03-16T12:26:57.470Z,99445.17
2023-03-16T12:29:43.829Z,99451.23
2023-03-16T12:32:25.985Z,99456.95
2023-03-16T12:35:06.994Z,99455.94
2023-03-16T12:37:47.793Z,99460.06
2023-03-16T12:40:31.519Z,99459.09
2023-03-16T12:43:37.118Z,99460.05
2023-03-16T12:46:14.223Z,99455.73
2023-03-16T12:48:46.634Z,99457.05
2023-03-16T12:51:14.680Z,99458.35
2023-03-16T12:53:51.883Z,99459.23
2023-03-16T12:56:30.420Z,99465.81
2023-03-16T12:59:00.396Z,99464.89
2023-03-16T13:01:30.727Z,99463.70
2023-03-16T13:04:12.993Z,99466.48
2023-03-16T13:06:48.457Z,99468.92
2023-03-16T13:09:19.811Z,99472.47
2023-03-16T13:11:51.725Z,99477.89
2023-03-16T13:14:42.743Z,99476.86
2023-03-16T13:17:18.506Z,99473.52
2023-03-16T13:20:18.228Z,99479.59
2023-03-16T13:23:22.307Z,99478.54
2023-03-16T13:26:15.884Z,99487.12
2023-03-16T13:28:47.122Z,99487.81
2023-03-16T13:31:27.724Z,99489.85
2023-03-16T13:33:59.946Z,99491.63
2023-03-16T13:36:30.176Z,99492.50
2023-03-16T13:39:17.545Z,99493.95
2023-03-16T13:41:59.944Z,99492.02
2023-03-16T13:44:28.600Z,99495.00
2023-03-16T13:46:57.098Z,99497.27
2023-03-16T13:49:25.304Z,99494.98
2023-03-16T13:51:53.982Z,99491.33
2023-03-16T13:54:28.126Z,99492.77
2023-03-16T13:56:58.251Z,99494.20
2023-03-16T13:59:26.655Z,99496.52
2023-03-16T14:01:59.839Z,99501.60
2023-03-16T14:04:29.919Z,99502.92
2023-03-16T14:07:03.806Z,99506.30
2023-03-16T14:09:35.813Z,99503.98
2023-03-16T14:12:04.403Z,99511.90
2023-03-16T14:14:42.016Z,99514.48
2023-03-16T14:17:13.753Z,99517.67
2023-03-16T14:19:51.040Z,99521.65
2023-03-16T14:22:24.098Z,99519.51
2023-03-16T14:24:55.028Z,99522.73
2023-03-16T14:27:40.052Z,99524.42
2023-03-16T14:30:27.017Z,99526.85
2023-03-16T14:32:56.905Z,99529.66
2023-03-16T14:35:30.540Z,99531.70
2023-03-16T14:38:41.102Z,99538.69
2023-03-16T14:41:24.114Z,99547.27
2023-03-16T14:43:55.772Z,99551.48
2023-03-16T14:46:30.855Z,99556.27
2023-03-16T14:49:10.491Z,99562.33
2023-03-16T14:51:39.234Z,99570.88
2023-03-16T14:54:19.153Z,99578.08
2023-03-16T14:56:55.736Z,99578.96
2023-03-16T14:59:24.474Z,99586.98
2023-03-16T15:01:55.423Z,99588.81
2023-03-16T15:04:30.341Z,99594.31
2023-03-16T15:06:58.773Z,99598.00
2023-03-16T15:09:34.943Z,99595.39
2023-03-16T15:12:03.310Z,99605.13
2023-03-16T15:15:00.767Z,99605.01
2023-03-16T15:17:32.680Z,99610.66
2023-03-16T15:20:01.440Z,99609.15
2023-03-16T15:22:32.605Z,99611.80
2023-03-16T15:25:37.467Z,99610.84
2023-03-16T15:28:17.667Z,99611.30
2023-03-16T15:30:53.870Z,99614.36
2023-03-16T15:33:22.963Z,99623.24
2023-03-16T15:35:53.015Z,99626.95
2023-03-16T15:38:22.992Z,99630.40
2023-03-16T15:40:51.447Z,99633.92
2023-03-16T15:43:24.676Z,99632.67
2023-03-16T15:45:54.289Z,99636.89
2023-03-16T15:48:24.733Z,99641.50
2023-03-16T15:51:04.891Z,99642.52
2023-03-16T15:53:36.132Z,99648.70
2023-03-16T15:56:09.858Z,99657.23
2023-03-16T15:58:42.714Z,99661.09
2023-03-16T16:01:26.814Z,99665.05
2023-03-16T16:03:56.213Z,99677.15
2023-03-16T16:06:24.493Z,99687.76
2023-03-16T16:08:52.870Z,99691.70
2023-03-16T16:11:26.183Z,99695.64
2023-03-16T16:13:57.938Z,99700.23
2023-03-16T16:16:29.960Z,99707.99
2023-03-16T16:18:58.401Z,99724.70
2023-03-16T16:21:33.937Z,99729.42
2023-03-16T16:24:03.300Z,99729.14
2023-03-16T16:26:48.566Z,99726.39
2023-03-16T16:29:23.998Z,99722.54
2023-03-16T16:31:53.110Z,99722.79
2023-03-16T16:34:25.836Z,99731.69
2023-03-16T16:36:55.307Z,99736.95
2023-03-16T16:39:24.786Z,99739.34
2023-03-16T16:41:57.233Z,99746.33
2023-03-16T16:44:32.126Z,99750.95
2023-03-16T16:47:19.272Z,99758.62
2023-03-16T16:49:49.137Z,99757.69
2023-03-16T16:52:17.690Z,99761.22
2023-03-16T16:54:46.379Z,99766.83
2023-03-16T16:57:18.596Z,99771.23
2023-03-16T16:59:48.083Z,99771.13
2023-03-16T17:02:30.098Z,99777.01
2023-03-16T17:04:58.934Z,99780.56
2023-03-16T17:07:30.082Z,99781.61
2023-03-16T17:10:00.117Z,99790.31
2023-03-16T17:12:29.850Z,99794.31
2023-03-16T17:14:58.237Z,99795.09
2023-03-16T17:17:29.227Z,99804.48
2023-03-16T17:19:58.296Z,99805.56
2023-03-16T17:22:30.396Z,99805.68
2023-03-16T17:25:00.609Z,99804.90
2023-03-16T17:27:30.515Z,99801.88
2023-03-16T17:29:58.659Z,99802.27
2023-03-16T17:32:27.410Z,99800.06
2023-03-16T17:34:55.921Z,99799.77
2023-03-16T17:37:23.956Z,99810.17
2023-03-16T17:39:52.487Z,99812.90
2023-03-16T17:42:23.016Z,99814.68
2023-03-16T17:44:52.419Z,99813.63
2023-03-16T17:47:21.684Z,99811.93
2023-03-16T17:49:51.548Z,99810.67
2023-03-16T17:52:23.481Z,99809.73
2023-03-16T17:54:53.634Z,99815.04
2023-03-16T17:57:28.544Z,99819.55
2023-03-16T17:59:56.875Z,99821.77
2023-03-16T18:02:54.612Z,99826.59
2023-03-16T18:05:27.215Z,99824.80
2023-03-16T18:08:07.315Z,99826.86
2023-03-16T18:10:44.953Z,99827.63
2023-03-16T18:13:22.816Z,99825.99
2023-03-16T18:15:53.028Z,99825.83
2023-03-16T18:18:27.313Z,99828.08
2023-03-16T18:21:02.028Z,99828.95
2023-03-16T18:23:32.032Z,99833.93
2023-03-16T18:26:07.285Z,99833.02
2023-03-16T18:28:38.095Z,99838.88
2023-03-16T18:31:08.092Z,99840.77
2023-03-16T18:33:39.823Z,99841.27
2023-03-16T18:36:16.389Z,99841.49
2023-03-16T18:38:47.423Z,99845.56
2023-03-16T18:41:30.087Z,99848.30
2023-03-16T18:44:18.999Z,99854.05
2023-03-16T18:46:48.526Z,99860.56
2023-03-16T18:49:36.308Z,99862.10
2023-03-16T18:52:07.627Z,99861.70
2023-03-16T18:54:39.101Z,99867.65
2023-03-16T18:57:36.356Z,99865.88
2023-03-16T19:00:06.683Z,99865.42
2023-03-16T19:02:38.119Z,99871.54
2023-03-16T19:05:12.774Z,99866.70
2023-03-16T19:07:42.806Z,99871.56
2023-03-16T19:10:21.252Z,99870.54
2023-03-16T19:12:50.692Z,99871.55
2023-03-16T19:15:30.968Z,99872.58
2023-03-16T19:18:00.020Z,99870.52
2023-03-16T19:20:30.673Z,99870.11
2023-03-16T19:23:24.469Z,99873.70
2023-03-16T19:25:53.526Z,99874.66
2023-03-16T19:28:34.313Z,99881.90
2023-03-16T19:31:05.345Z,99885.38
2023-03-16T19:33:33.856Z,99889.42
2023-03-16T19:37:29.406Z,99887.73
2023-03-16T19:39:56.368Z,99894.11
2023-03-16T19:42:32.896Z,99894.57
2023-03-16T19:44:59.635Z,99900.83
2023-03-16T19:47:32.819Z,99904.21
2023-03-16T19:50:00.358Z,99899.35
2023-03-16T19:52:27.683Z,99899.19
2023-03-16T19:54:54.215Z,99891.05
2023-03-16T19:57:20.914Z,99897.15
2023-03-16T19:59:57.088Z,99903.30
2023-03-16T20:02:26.597Z,99906.48
2023-03-16T20:04:54.158Z,99911.35
2023-03-16T20:07:21.233Z,99913.31
2023-03-16T20:09:47.876Z,99916.89
2023-03-16T20:12:28.267Z,99917.34
2023-03-16T20:14:59.099Z,99916.20
2023-03-16T20:17:27.874Z,99911.87
2023-03-16T20:19:54.987Z,99907.55
2023-03-16T20:22:23.897Z,99907.38
2023-03-16T20:24:50.864Z,99908.20
2023-03-16T20:27:22.242Z,99907.46
2023-03-16T20:29:50.028Z,99911.41
2023-03-16T20:32:28.117Z,99909.36
2023-03-16T20:34:56.018Z,99903.91
2023-03-16T20:37:25.955Z,99909.40
2023-03-16T20:40:06.347Z,99909.95
2023-03-16T20:42:34.498Z,99910.54
2023-03-16T20:45:25.406Z,99911.88
2023-03-16T20:47:53.149Z,99915.99
2023-03-16T20:50:24.504Z,99917.15
2023-03-16T20:52:53.069Z,99917.98
2023-03-16T20:55:22.650Z,99921.64
2023-03-16T20:57:51.361Z,99923.80
2023-03-16T21:00:25.896Z,99929.39
2023-03-16T21:02:54.106Z,99932.23
2023-03-16T21:05:20.702Z,99925.69
2023-03-16T21:07:48.338Z,99930.55
2023-03-16T21:10:17.608Z,99929.00
2023-03-16T21:12:49.149Z,99927.12
2023-03-16T21:15:27.472Z,99927.91
2023-03-16T21:18:03.465Z,99932.56
2023-03-16T21:20:32.050Z,99935.70
2023-03-16T21:22:59.147Z,99939.81
2023-03-16T21:25:31.206Z,99938.02
2023-03-16T21:28:01.021Z,99934.70
2023-03-16T21:30:33.383Z,99938.19
2023-03-16T21:33:01.249Z,99938.04
2023-03-16T21:35:35.990Z,99941.39
2023-03-16T21:38:15.766Z,99941.66
2023-03-16T21:40:43.573Z,99944.48
2023-03-16T21:43:13.868Z,99947.84
2023-03-16T21:45:41.211Z,99946.92
2023-03-16T21:48:38.438Z,99951.84
2023-03-16T21:51:14.166Z,99952.90
2023-03-16T21:53:40.925Z,99956.80
2023-03-16T21:56:12.438Z,99963.52
2023-03-16T21:58:40.013Z,99968.08
2023-03-16T22:01:15.965Z,99967.23
2023-03-16T22:03:50.941Z,99971.45
2023-03-16T22:06:19.471Z,99973.17
2023-03-16T22:08:46.493Z,99977.88
2023-03-16T22:11:18.380Z,99980.30
2023-03-16T22:13:45.831Z,99986.92
2023-03-16T22:16:17.362Z,99988.70
2023-03-16T22:18:46.511Z,99992.91
2023-03-16T22:21:36.002Z,99992.89
2023-03-16T22:24:13.606Z,99997.34
2023-03-16T22:26:41.718Z,99992.86
2023-03-16T22:29:28.645Z,99996.80
2023-03-16T22:32:02.390Z,99994.70
2023-03-16T22:34:36.925Z,99997.69
2023-03-16T22:37:04.068Z,99997.03
2023-03-16T22:39:32.942Z,99995.79
2023-03-16T22:42:03.627Z,99998.26
2023-03-16T22:44:30.844Z,99996.00
2023-03-16T22:46:57.601Z,100001.57
2023-03-16T22:49:29.777Z,99999.95
2023-03-16T22:51:57.392Z,100005.13
2023-03-16T22:54:28.928Z,100001.40
2023-03-16T22:56:55.898Z,100006.62
2023-03-16T22:59:22.603Z,100008.48
2023-03-16T23:01:49.433Z,100004.55
2023-03-16T23:04:16.519Z,100004.45
2023-03-16T23:06:49.147Z,100002.95
2023-03-16T23:09:16.399Z,100002.75
2023-03-16T23:11:47.582Z,100008.70
2023-03-16T23:14:20.962Z,100009.59
2023-03-16T23:16:48.043Z,100007.37
2023-03-16T23:19:26.092Z,100008.09
2023-03-16T23:21:57.300Z,100007.74
2023-03-16T23:24:24.706Z,100011.20
2023-03-16T23:26:52.495Z,100009.83
2023-03-16T23:29:20.447Z,100013.48
2023-03-16T23:31:49.147Z,100014.86
2023-03-16T23:34:17.990Z,100017.11
2023-03-16T23:36:47.589Z,100018.42
2023-03-16T23:39:14.668Z,100019.85
2023-03-16T23:41:43.490Z,100017.05
2023-03-16T23:44:21.711Z,100025.09
2023-03-16T23:46:49.033Z,100024.63
2023-03-16T23:49:24.099Z,100024.58
2023-03-16T23:51:51.428Z,100020.66
2023-03-16T23:54:23.467Z,100015.00
2023-03-16T23:56:50.992Z,100014.00
2023-03-16T23:59:18.604Z,100016.44
